Time;durP1;ratioP1;P1;durP2;ratioP2;P2;SDS_P1;SDS_P2;PMS_P1;PMS_P2;Temp;Humidity;BMP_temperature;BMP_pressure;BME280_temperature;BME280_humidity;BME280_pressure;Samples;Min_cycle;Max_cycle;Signal;HPM_P1;HPM_P2
2021/03/03 00:00:31;;;;;;;8.00;2.42;;;24.30;55.00;;;;;;4999892;28;20030;-67
2021/03/03 00:03:00;;;;;;;12.07;1.45;;;24.50;54.40;;;;;;4996925;28;20144;-68
2021/03/03 00:05:29;;;;;;;7.70;1.98;;;24.50;53.90;;;;;;4997697;28;20120;-67
2021/03/03 00:07:56;;;;;;;5.53;1.13;;;24.50;53.10;;;;;;4997686;28;20386;-69
2021/03/03 00:10:24;;;;;;;7.80;1.90;;;24.70;51.80;;;;;;4998405;28;20079;-67
2021/03/03 00:12:51;;;;;;;10.18;2.13;;;25.20;52.40;;;;;;5000254;28;20038;-67
2021/03/03 00:15:19;;;;;;;6.30;1.48;;;26.10;50.60;;;;;;5001356;28;20428;-68
2021/03/03 00:17:46;;;;;;;6.90;1.63;;;26.40;50.60;;;;;;4997234;28;20022;-66
2021/03/03 00:20:15;;;;;;;7.30;1.48;;;26.20;47.60;;;;;;5000381;28;20130;-66
2021/03/03 00:22:42;;;;;;;7.35;1.42;;;26.80;46.00;;;;;;5000761;28;20072;-66
2021/03/03 00:25:10;;;;;;;5.70;1.27;;;27.30;45.30;;;;;;5000100;28;20029;-68
2021/03/03 00:27:37;;;;;;;7.13;1.90;;;27.30;46.70;;;;;;4998830;28;20133;-68
2021/03/03 00:30:05;;;;;;;4.40;0.90;;;26.70;47.70;;;;;;4997810;28;20124;-68
2021/03/03 00:32:33;;;;;;;6.07;1.27;;;26.30;49.00;;;;;;5015308;28;20095;-67
2021/03/03 00:35:00;;;;;;;9.43;1.27;;;26.00;48.70;;;;;;5000798;28;20178;-68
2021/03/03 00:37:27;;;;;;;7.45;1.15;;;26.00;48.40;;;;;;4997833;28;20084;-68
2021/03/03 00:39:55;;;;;;;4.43;1.02;;;25.70;49.00;;;;;;4998778;28;20030;-65
2021/03/03 00:42:22;;;;;;;7.70;1.40;;;25.60;49.80;;;;;;4998965;28;20960;-66
2021/03/03 00:44:49;;;;;;;10.95;1.45;;;25.10;50.90;;;;;;5000856;28;20050;-66
2021/03/03 00:47:17;;;;;;;4.93;1.20;;;24.80;50.00;;;;;;4997124;28;20038;-66
2021/03/03 00:49:44;;;;;;;6.85;1.45;;;24.50;52.20;;;;;;5001236;28;20053;-68
2021/03/03 00:52:11;;;;;;;9.10;1.77;;;24.50;51.90;;;;;;4999106;28;20042;-68
2021/03/03 00:54:39;;;;;;;8.18;1.90;;;24.50;52.20;;;;;;5001047;28;20032;-66
2021/03/03 00:57:06;;;;;;;5.43;1.20;;;24.70;52.40;;;;;;4998890;28;20418;-67
2021/03/03 00:59:34;;;;;;;5.70;1.58;;;25.00;51.10;;;;;;4998694;28;20037;-66
2021/03/03 01:02:01;;;;;;;6.97;1.45;;;25.50;50.50;;;;;;4998706;28;21678;-66
2021/03/03 01:04:28;;;;;;;6.18;1.25;;;25.50;48.40;;;;;;4999913;28;20109;-65
2021/03/03 01:06:56;;;;;;;6.25;1.45;;;25.40;49.40;;;;;;4998381;28;20133;-66
2021/03/03 01:09:23;;;;;;;6.75;1.23;;;25.30;48.30;;;;;;4996843;28;20515;-65
2021/03/03 01:11:51;;;;;;;8.57;1.45;;;25.10;49.90;;;;;;4995391;28;20057;-67
2021/03/03 01:14:19;;;;;;;4.13;1.27;;;25.10;50.90;;;;;;5000999;28;20038;-66
2021/03/03 01:16:51;;;;;;;5.70;1.10;;;24.90;49.30;;;;;;5002977;28;20480;-67
2021/03/03 01:19:19;;;;;;;5.93;1.10;;;24.60;49.40;;;;;;5001071;28;20030;-66
2021/03/03 01:21:46;;;;;;;9.88;1.15;;;24.60;50.30;;;;;;5001905;28;20100;-66
2021/03/03 01:24:14;;;;;;;4.30;0.88;;;24.70;50.10;;;;;;5002860;28;20820;-66
2021/03/03 01:26:42;;;;;;;4.28;1.30;;;25.00;49.70;;;;;;5003287;28;20096;-66
2021/03/03 01:29:09;;;;;;;7.15;1.50;;;25.30;48.50;;;;;;5001591;28;20048;-65
2021/03/03 01:31:37;;;;;;;8.68;1.73;;;25.70;48.10;;;;;;5000839;28;20030;-67
2021/03/03 01:34:04;;;;;;;6.05;0.93;;;26.10;47.10;;;;;;5004112;28;20034;-68
2021/03/03 01:36:32;;;;;;;5.93;2.15;;;26.50;45.90;;;;;;5004543;28;20157;-66
2021/03/03 01:39:00;;;;;;;5.90;1.45;;;27.40;44.50;;;;;;5000985;28;20396;-66
2021/03/03 01:41:28;;;;;;;7.15;1.85;;;28.20;44.60;;;;;;5002423;28;20029;-66
2021/03/03 01:43:55;;;;;;;4.45;1.30;;;28.10;43.10;;;;;;5002373;28;20033;-65
2021/03/03 01:46:23;;;;;;;8.32;1.23;;;26.70;45.10;;;;;;5003864;28;20030;-66
2021/03/03 01:48:51;;;;;;;5.65;1.20;;;26.50;45.20;;;;;;4998749;28;20499;-68
2021/03/03 01:51:19;;;;;;;5.80;1.90;;;27.10;45.30;;;;;;4999170;28;20042;-66
2021/03/03 01:53:47;;;;;;;6.80;1.45;;;27.80;44.50;;;;;;5002735;28;20125;-66
2021/03/03 01:56:15;;;;;;;9.02;1.40;;;27.50;44.60;;;;;;5002644;28;20451;-67
2021/03/03 01:58:42;;;;;;;8.60;1.83;;;27.40;43.40;;;;;;4999398;28;20065;-66
2021/03/03 02:01:09;;;;;;;11.18;2.03;;;26.90;44.70;;;;;;5000691;28;20034;-66
2021/03/03 02:03:39;;;;;;;5.13;1.20;;;26.50;45.30;;;;;;5003109;28;20048;-67
2021/03/03 02:06:31;;;;;;;8.95;1.75;;;26.50;47.10;;;;;;5002850;28;20481;-69
2021/03/03 02:09:10;;;;;;;9.75;1.20;;;26.30;45.90;;;;;;5000208;28;20369;-68
2021/03/03 02:11:38;;;;;;;4.22;1.30;;;26.10;46.20;;;;;;5000838;28;20030;-65
2021/03/03 02:14:11;;;;;;;4.85;1.08;;;26.00;46.10;;;;;;5001537;28;20033;-68
2021/03/03 02:16:42;;;;;;;10.43;1.77;;;25.40;48.20;;;;;;5000625;28;20037;-66
2021/03/03 02:19:18;;;;;;;7.40;1.20;;;25.10;49.00;;;;;;5000934;28;20125;-67
2021/03/03 02:21:51;;;;;;;6.95;1.73;;;25.10;49.40;;;;;;5000214;28;20029;-67
2021/03/03 02:24:28;;;;;;;7.30;1.50;;;24.90;49.60;;;;;;5001051;28;20493;-67
2021/03/03 02:26:57;;;;;;;5.07;1.40;;;24.80;49.60;;;;;;5000667;28;20026;-68
2021/03/03 02:29:29;;;;;;;6.53;1.58;;;24.80;50.30;;;;;;5001582;28;20495;-66
2021/03/03 02:31:57;;;;;;;10.32;1.95;;;24.80;51.80;;;;;;4999115;28;20057;-69
2021/03/03 02:34:28;;;;;;;9.82;1.58;;;24.70;51.60;;;;;;5001769;28;20033;-68
2021/03/03 02:36:57;;;;;;;8.60;1.30;;;24.60;50.70;;;;;;5001505;28;20058;-68
2021/03/03 02:39:27;;;;;;;11.95;2.22;;;24.60;50.40;;;;;;5002225;28;20041;-66
2021/03/03 02:41:56;;;;;;;8.27;1.58;;;24.50;51.00;;;;;;4999451;28;20034;-65
2021/03/03 02:44:26;;;;;;;7.18;1.60;;;24.60;50.40;;;;;;5001436;28;20096;-65
2021/03/03 02:46:53;;;;;;;7.65;2.13;;;24.70;49.90;;;;;;5001465;28;20087;-65
2021/03/03 02:49:22;;;;;;;9.05;1.60;;;24.90;49.40;;;;;;5001855;28;20156;-65
2021/03/03 02:51:50;;;;;;;6.47;1.38;;;24.70;48.70;;;;;;4999438;28;20022;-67
2021/03/03 02:54:19;;;;;;;5.80;1.70;;;24.50;49.50;;;;;;5001845;28;20065;-66
2021/03/03 02:56:47;;;;;;;7.47;1.77;;;24.40;50.50;;;;;;5000612;28;20053;-66
2021/03/03 02:59:35;;;;;;;8.65;1.60;;;24.50;51.70;;;;;;5000123;28;20172;-67
2021/03/03 03:02:07;;;;;;;6.15;1.15;;;25.10;50.50;;;;;;4998923;28;20022;-67
2021/03/03 03:04:39;;;;;;;4.93;1.20;;;26.10;48.00;;;;;;5001963;28;20579;-68
2021/03/03 03:07:21;;;;;;;5.30;1.83;;;26.70;46.80;;;;;;4997503;28;20384;-67
2021/03/03 03:09:50;;;;;;;7.55;1.45;;;27.20;46.90;;;;;;5001606;28;20096;-67
2021/03/03 03:12:21;;;;;;;6.03;1.35;;;27.10;44.20;;;;;;4999734;28;20129;-67
2021/03/03 03:14:51;;;;;;;5.95;1.67;;;26.80;45.70;;;;;;5002154;28;20022;-67
2021/03/03 03:17:21;;;;;;;5.40;1.17;;;27.50;46.20;;;;;;4998415;28;20045;-67
2021/03/03 03:19:52;;;;;;;8.88;1.70;;;28.40;43.40;;;;;;4999110;28;20032;-68
2021/03/03 03:22:23;;;;;;;6.38;1.30;;;28.70;43.80;;;;;;4999205;28;20030;-68
2021/03/03 03:24:54;;;;;;;5.97;1.35;;;27.60;41.30;;;;;;4999781;28;20030;-67
2021/03/03 03:27:22;;;;;;;4.65;1.40;;;26.50;46.60;;;;;;4997642;28;20153;-66
2021/03/03 03:29:50;;;;;;;11.35;1.70;;;26.10;46.90;;;;;;5001380;28;20034;-68
2021/03/03 03:32:18;;;;;;;8.95;1.30;;;26.30;46.70;;;;;;4998123;28;20045;-67
2021/03/03 03:34:45;;;;;;;4.25;1.30;;;26.00;45.80;;;;;;5001487;28;20108;-65
2021/03/03 03:37:14;;;;;;;8.38;1.77;;;25.90;47.10;;;;;;4995180;28;20033;-65
2021/03/03 03:39:41;;;;;;;7.93;1.30;;;26.20;47.40;;;;;;5000270;28;20284;-68
2021/03/03 03:42:11;;;;;;;6.80;1.13;;;26.80;46.00;;;;;;4999168;28;20479;-66
2021/03/03 03:44:40;;;;;;;9.60;1.88;;;26.70;48.10;;;;;;5000335;28;20088;-66
2021/03/03 03:47:08;;;;;;;5.57;1.40;;;26.30;45.80;;;;;;4998034;28;20489;-66
2021/03/03 03:49:36;;;;;;;9.35;2.38;;;26.20;46.30;;;;;;5001146;28;20461;-65
2021/03/03 03:52:04;;;;;;;6.30;1.75;;;26.10;45.80;;;;;;4998888;28;20431;-67
2021/03/03 03:54:31;;;;;;;6.50;1.45;;;26.00;46.10;;;;;;5002191;28;21410;-66
2021/03/03 03:56:58;;;;;;;8.60;2.10;;;25.70;47.60;;;;;;4997918;28;20034;-66
2021/03/03 03:59:26;;;;;;;6.60;1.45;;;26.50;47.70;;;;;;4999330;28;20132;-67
2021/03/03 04:01:53;;;;;;;5.07;1.40;;;27.40;45.70;;;;;;4999970;28;20026;-67
2021/03/03 04:04:22;;;;;;;12.55;2.72;;;28.10;43.50;;;;;;5001450;28;20369;-67
2021/03/03 04:06:49;;;;;;;4.88;1.67;;;28.60;42.20;;;;;;4999967;28;20148;-66
2021/03/03 04:09:17;;;;;;;9.85;1.27;;;28.60;42.10;;;;;;5000363;28;20037;-66
2021/03/03 04:11:44;;;;;;;7.50;1.50;;;28.00;43.80;;;;;;4999302;28;20033;-66
2021/03/03 04:14:12;;;;;;;9.65;2.55;;;27.10;43.70;;;;;;5001732;28;20717;-67
2021/03/03 04:16:40;;;;;;;9.77;2.05;;;26.00;45.80;;;;;;4999222;28;20034;-66
2021/03/03 04:19:07;;;;;;;9.68;1.55;;;25.90;47.40;;;;;;4999352;28;20356;-67
2021/03/03 04:21:34;;;;;;;5.40;1.40;;;26.50;46.10;;;;;;4998010;28;20125;-65
2021/03/03 04:24:02;;;;;;;9.15;2.55;;;26.60;45.50;;;;;;5002028;28;20030;-68
2021/03/03 04:26:31;;;;;;;6.57;1.27;;;25.90;45.60;;;;;;5001492;28;20030;-67
2021/03/03 04:28:58;;;;;;;5.28;1.70;;;25.50;47.90;;;;;;4998337;28;20086;-69
2021/03/03 04:31:26;;;;;;;11.43;2.15;;;25.90;47.70;;;;;;4996934;28;20030;-67
2021/03/03 04:33:53;;;;;;;7.40;1.80;;;26.70;45.30;;;;;;4998770;28;20064;-67
2021/03/03 04:36:21;;;;;;;8.43;1.67;;;27.00;44.50;;;;;;5000208;28;20022;-67
2021/03/03 04:38:48;;;;;;;6.30;2.03;;;27.40;43.80;;;;;;4999447;28;20041;-67
2021/03/03 04:41:15;;;;;;;6.28;1.70;;;27.20;44.20;;;;;;5000217;28;20112;-66
2021/03/03 04:43:43;;;;;;;5.10;1.90;;;28.00;45.30;;;;;;5001987;28;20053;-68
2021/03/03 04:46:10;;;;;;;4.65;1.42;;;28.20;43.70;;;;;;4999793;28;20034;-68
2021/03/03 04:48:39;;;;;;;5.40;1.90;;;28.60;42.80;;;;;;4995436;28;20447;-68
2021/03/03 04:51:06;;;;;;;6.18;1.55;;;29.00;42.10;;;;;;5002468;28;20480;-67
2021/03/03 04:53:33;;;;;;;5.90;1.73;;;29.00;42.20;;;;;;5004017;28;20029;-67
2021/03/03 04:56:01;;;;;;;7.85;1.80;;;29.10;41.70;;;;;;5004823;28;20527;-68
2021/03/03 04:58:28;;;;;;;4.88;1.60;;;29.10;41.50;;;;;;5001044;28;20404;-67
2021/03/03 05:00:57;;;;;;;9.73;3.33;;;29.00;39.90;;;;;;5004254;28;20517;-68
2021/03/03 05:03:24;;;;;;;8.35;2.38;;;28.40;42.20;;;;;;5002136;28;20893;-67
2021/03/03 05:05:52;;;;;;;8.48;1.30;;;28.50;42.70;;;;;;5002903;28;20038;-67
2021/03/03 05:08:19;;;;;;;6.97;1.20;;;28.50;41.70;;;;;;5000730;28;20836;-67
2021/03/03 05:10:47;;;;;;;4.88;1.50;;;27.90;43.00;;;;;;5003723;28;20388;-67
2021/03/03 05:13:18;;;;;;;12.75;2.35;;;27.20;44.40;;;;;;5001454;28;20044;-67
2021/03/03 05:15:45;;;;;;;8.20;1.77;;;26.70;45.70;;;;;;5003248;28;20298;-66
2021/03/03 05:18:13;;;;;;;7.72;1.90;;;26.40;46.50;;;;;;5000632;28;20197;-67
2021/03/03 05:20:42;;;;;;;6.72;1.27;;;26.10;47.20;;;;;;5002914;28;20053;-66
2021/03/03 05:23:10;;;;;;;7.13;1.48;;;25.80;47.40;;;;;;5002620;28;20444;-66
2021/03/03 05:25:37;;;;;;;4.65;1.77;;;25.90;47.80;;;;;;5003523;28;20380;-65
2021/03/03 05:28:05;;;;;;;10.30;1.90;;;25.70;48.20;;;;;;4999790;28;20045;-66
2021/03/03 05:30:33;;;;;;;5.43;1.77;;;25.50;48.80;;;;;;5004938;28;20543;-66
2021/03/03 05:33:00;;;;;;;7.70;1.48;;;25.40;48.70;;;;;;5000901;28;20505;-66
2021/03/03 05:35:28;;;;;;;10.68;2.17;;;25.20;49.60;;;;;;5004921;28;20033;-66
2021/03/03 05:37:55;;;;;;;8.93;2.30;;;25.00;49.20;;;;;;5001244;28;20479;-66
2021/03/03 05:40:23;;;;;;;8.18;1.80;;;24.90;49.80;;;;;;5004210;28;20030;-65
2021/03/03 05:42:51;;;;;;;5.78;1.67;;;25.10;50.10;;;;;;4999192;28;20037;-64
2021/03/03 05:45:19;;;;;;;8.27;1.25;;;25.00;49.30;;;;;;5003568;28;20160;-67
2021/03/03 05:47:49;;;;;;;6.03;1.75;;;24.90;50.00;;;;;;5000747;28;20049;-64
2021/03/03 05:50:19;;;;;;;3.58;0.98;;;24.70;50.40;;;;;;5003425;28;20034;-65
2021/03/03 05:52:47;;;;;;;4.53;2.08;;;24.60;50.30;;;;;;5002236;28;20069;-66
2021/03/03 05:55:16;;;;;;;6.97;1.17;;;24.60;50.90;;;;;;5002344;28;20036;-64
2021/03/03 05:57:44;;;;;;;5.13;1.48;;;24.70;50.90;;;;;;5000568;28;20034;-66
2021/03/03 06:00:12;;;;;;;8.63;1.30;;;24.70;50.50;;;;;;5003244;28;20048;-65
2021/03/03 06:02:41;;;;;;;11.80;2.35;;;24.60;50.60;;;;;;4999521;28;20436;-67
2021/03/03 06:05:12;;;;;;;9.00;1.40;;;24.50;50.60;;;;;;5003643;28;20034;-69
2021/03/03 06:07:40;;;;;;;6.72;2.08;;;24.40;50.90;;;;;;4999834;28;20465;-65
2021/03/03 06:10:08;;;;;;;5.13;1.40;;;24.30;50.70;;;;;;5002632;28;20040;-66
2021/03/03 06:12:35;;;;;;;8.95;1.88;;;24.30;51.30;;;;;;5001329;28;20495;-67
2021/03/03 06:15:03;;;;;;;8.35;1.38;;;24.20;51.90;;;;;;5003813;28;20427;-67
2021/03/03 06:17:31;;;;;;;6.82;1.75;;;24.10;51.60;;;;;;5000748;28;20772;-67
2021/03/03 06:19:59;;;;;;;7.43;1.50;;;24.10;52.00;;;;;;5003133;28;20033;-67
2021/03/03 06:22:28;;;;;;;8.30;1.60;;;24.10;52.00;;;;;;5000696;28;20048;-66
2021/03/03 06:24:57;;;;;;;5.22;1.25;;;23.90;52.10;;;;;;5003078;28;20034;-66
2021/03/03 06:27:38;;;;;;;5.78;1.30;;;23.90;52.50;;;;;;5001107;28;20045;-66
2021/03/03 06:30:15;;;;;;;6.18;1.98;;;24.00;52.10;;;;;;5001717;28;20669;-67
2021/03/03 06:33:03;;;;;;;5.78;1.38;;;23.90;52.10;;;;;;5000516;28;20575;-66
2021/03/03 06:35:48;;;;;;;7.32;1.33;;;23.80;52.50;;;;;;5003243;28;20448;-66
2021/03/03 06:38:16;;;;;;;6.97;1.75;;;23.50;52.80;;;;;;4999733;28;20030;-67
2021/03/03 06:40:54;;;;;;;4.45;1.20;;;23.30;53.70;;;;;;5001910;28;20030;-67
2021/03/03 06:43:31;;;;;;;4.95;1.48;;;23.20;54.20;;;;;;5000188;28;20042;-67
2021/03/03 06:46:16;;;;;;;8.45;1.67;;;23.20;54.70;;;;;;5002715;28;20924;-66
2021/03/03 06:48:45;;;;;;;8.60;1.57;;;23.20;54.40;;;;;;4998750;28;20060;-67
2021/03/03 06:51:31;;;;;;;8.00;1.33;;;23.30;54.30;;;;;;5000750;28;20113;-66
2021/03/03 06:54:01;;;;;;;6.95;1.55;;;23.40;54.40;;;;;;5003621;28;21522;-66
2021/03/03 06:56:44;;;;;;;7.97;1.70;;;23.40;53.80;;;;;;5001711;28;20069;-66
2021/03/03 06:59:15;;;;;;;4.78;1.45;;;23.20;53.90;;;;;;4998859;28;20034;-66
2021/03/03 07:01:43;;;;;;;6.28;1.65;;;23.10;54.60;;;;;;4999391;28;20029;-66
2021/03/03 07:04:22;;;;;;;6.00;1.67;;;23.00;54.70;;;;;;5000963;28;20054;-68
2021/03/03 07:06:51;;;;;;;8.27;1.63;;;23.10;54.60;;;;;;5001228;28;20045;-66
2021/03/03 07:09:20;;;;;;;9.82;2.55;;;23.10;55.10;;;;;;5000329;28;20542;-65
2021/03/03 07:11:51;;;;;;;7.53;1.85;;;23.00;55.30;;;;;;4999471;28;20038;-67
2021/03/03 07:14:22;;;;;;;13.93;3.00;;;23.10;54.90;;;;;;5001864;28;20389;-66
2021/03/03 07:17:06;;;;;;;10.32;2.35;;;23.20;54.40;;;;;;4999408;28;20041;-66
2021/03/03 07:19:59;;;;;;;5.13;2.08;;;23.00;54.80;;;;;;5000692;28;20058;-66
2021/03/03 07:22:34;;;;;;;4.45;1.98;;;22.90;55.10;;;;;;4999305;28;20026;-66
2021/03/03 07:25:12;;;;;;;13.40;2.60;;;22.70;55.90;;;;;;5003287;28;20038;-66
2021/03/03 07:27:42;;;;;;;7.07;1.42;;;22.60;56.00;;;;;;4997414;28;20073;-66
2021/03/03 07:30:14;;;;;;;7.30;1.80;;;22.50;56.40;;;;;;5000011;28;20033;-66
2021/03/03 07:32:42;;;;;;;7.07;1.70;;;22.30;57.20;;;;;;4999155;28;20121;-69
2021/03/03 07:35:11;;;;;;;5.90;2.38;;;22.20;57.20;;;;;;5001591;28;20054;-67
2021/03/03 07:37:49;;;;;;;9.70;3.13;;;21.90;58.20;;;;;;4999030;28;20372;-67
2021/03/03 07:40:18;;;;;;;6.35;2.00;;;21.80;58.20;;;;;;5001652;28;20038;-67
2021/03/03 07:42:56;;;;;;;10.13;1.55;;;21.80;58.30;;;;;;4999680;28;20116;-68
2021/03/03 07:45:47;;;;;;;5.68;1.15;;;21.70;58.40;;;;;;5002983;28;20516;-67
2021/03/03 07:48:15;;;;;;;7.40;1.80;;;21.80;58.50;;;;;;4998601;28;20045;-69
2021/03/03 07:50:43;;;;;;;3.55;1.15;;;21.80;58.70;;;;;;5001194;28;20711;-68
2021/03/03 07:53:12;;;;;;;6.65;1.10;;;21.80;59.10;;;;;;4997874;28;20554;-68
2021/03/03 07:55:41;;;;;;;8.50;2.85;;;21.70;59.00;;;;;;5000444;28;20205;-66
2021/03/03 07:58:09;;;;;;;7.40;1.50;;;21.60;58.80;;;;;;4998372;28;20052;-68
2021/03/03 08:00:40;;;;;;;9.15;3.38;;;21.50;59.40;;;;;;4998630;28;20018;-67
2021/03/03 08:03:08;;;;;;;6.53;1.92;;;21.40;60.00;;;;;;4998361;28;20365;-67
2021/03/03 08:05:40;;;;;;;5.10;1.15;;;21.30;59.90;;;;;;5000964;28;20049;-66
2021/03/03 08:08:26;;;;;;;13.85;1.70;;;21.20;59.90;;;;;;4999169;28;20077;-68
2021/03/03 08:10:59;;;;;;;6.30;1.60;;;21.30;60.00;;;;;;5000992;28;20778;-67
2021/03/03 08:13:34;;;;;;;8.23;1.35;;;21.20;60.20;;;;;;4997331;28;20038;-67
2021/03/03 08:16:07;;;;;;;6.57;1.88;;;21.20;60.20;;;;;;5002086;28;20432;-66
2021/03/03 08:18:36;;;;;;;6.15;1.13;;;21.20;60.40;;;;;;4999873;28;20109;-68
2021/03/03 08:21:10;;;;;;;4.47;1.15;;;21.20;61.10;;;;;;4999867;28;20038;-65
2021/03/03 08:23:38;;;;;;;6.05;1.90;;;21.20;60.80;;;;;;5000062;28;20069;-67
2021/03/03 08:26:31;;;;;;;9.88;3.38;;;21.10;60.90;;;;;;5006220;28;20022;-67
2021/03/03 08:29:16;;;;;;;9.15;1.95;;;21.10;61.70;;;;;;5003253;28;20077;-68
2021/03/03 08:31:44;;;;;;;6.75;2.53;;;21.00;61.20;;;;;;5003174;28;20420;-66
2021/03/03 08:34:12;;;;;;;7.07;2.15;;;21.00;61.40;;;;;;5005681;28;20772;-68
2021/03/03 08:36:40;;;;;;;9.15;1.88;;;20.90;62.20;;;;;;5004998;28;20428;-68
2021/03/03 08:39:10;;;;;;;6.30;1.27;;;20.90;61.90;;;;;;5003936;28;20102;-67
2021/03/03 08:41:40;;;;;;;5.65;1.58;;;20.90;61.90;;;;;;5002196;28;20037;-67
2021/03/03 08:44:16;;;;;;;7.85;1.95;;;20.90;61.80;;;;;;5005273;28;20159;-67
2021/03/03 08:46:47;;;;;;;8.70;1.48;;;20.90;61.40;;;;;;5004775;28;20034;-67
2021/03/03 08:49:14;;;;;;;9.82;1.60;;;20.90;61.30;;;;;;5002353;28;20108;-68
2021/03/03 08:51:44;;;;;;;5.55;1.52;;;20.90;61.60;;;;;;5001860;28;20034;-68
2021/03/03 08:54:18;;;;;;;5.80;1.25;;;20.80;61.80;;;;;;5003124;28;20026;-68
2021/03/03 08:56:51;;;;;;;5.40;2.13;;;20.70;62.20;;;;;;5001633;28;20472;-68
2021/03/03 08:59:33;;;;;;;5.32;1.35;;;20.70;62.10;;;;;;4999793;28;20046;-67
2021/03/03 09:02:20;;;;;;;9.02;1.70;;;20.60;62.40;;;;;;5001431;28;20045;-71
2021/03/03 09:04:52;;;;;;;5.40;0.93;;;20.50;62.90;;;;;;5001401;28;20026;-69
2021/03/03 09:07:26;;;;;;;5.13;1.15;;;20.50;63.10;;;;;;5000187;28;20034;-69
2021/03/03 09:09:59;;;;;;;9.23;1.42;;;20.40;63.80;;;;;;5003307;28;20026;-69
2021/03/03 09:12:32;;;;;;;7.10;1.55;;;20.20;64.50;;;;;;5000995;28;20041;-70
2021/03/03 09:15:03;;;;;;;6.65;1.65;;;20.20;64.30;;;;;;5003337;28;20034;-68
2021/03/03 09:17:34;;;;;;;7.50;1.58;;;20.20;64.30;;;;;;5001964;28;20048;-68
2021/03/03 09:20:06;;;;;;;8.05;1.33;;;20.10;64.90;;;;;;5004982;28;20104;-68
2021/03/03 09:22:39;;;;;;;8.23;1.40;;;20.00;64.90;;;;;;5001517;28;20036;-67
2021/03/03 09:25:17;;;;;;;7.70;1.40;;;20.10;64.40;;;;;;5003691;28;20333;-67
2021/03/03 09:27:52;;;;;;;5.07;0.88;;;20.10;64.40;;;;;;5002800;28;20037;-68
2021/03/03 09:30:21;;;;;;;5.70;1.10;;;20.10;64.90;;;;;;5005183;28;20092;-69
2021/03/03 09:32:49;;;;;;;5.95;1.33;;;20.10;64.70;;;;;;5001919;28;20030;-69
2021/03/03 09:35:27;;;;;;;6.35;1.17;;;20.00;64.90;;;;;;5004513;28;20033;-68
2021/03/03 09:37:54;;;;;;;3.60;1.05;;;20.10;64.50;;;;;;5001220;28;20037;-69
2021/03/03 09:40:37;;;;;;;5.78;1.50;;;20.10;64.90;;;;;;5004571;28;20029;-68
2021/03/03 09:43:05;;;;;;;4.60;1.02;;;20.10;65.00;;;;;;5002233;28;20113;-67
2021/03/03 09:45:32;;;;;;;7.65;1.83;;;20.10;64.90;;;;;;5004241;28;20030;-67
2021/03/03 09:48:00;;;;;;;4.63;1.05;;;20.20;64.60;;;;;;5001316;28;20522;-69
2021/03/03 09:50:33;;;;;;;3.88;1.35;;;20.10;64.90;;;;;;5004882;28;20061;-67
2021/03/03 09:53:01;;;;;;;7.00;1.25;;;20.10;64.40;;;;;;5002109;28;20045;-67
2021/03/03 09:55:31;;;;;;;4.65;0.75;;;20.10;64.30;;;;;;5004912;28;20030;-65
2021/03/03 09:57:59;;;;;;;10.27;1.50;;;20.10;64.50;;;;;;5001776;28;20037;-68
2021/03/03 10:00:37;;;;;;;4.45;1.17;;;20.20;64.30;;;;;;5003573;28;20662;-67
2021/03/03 10:03:09;;;;;;;5.32;1.08;;;20.30;64.00;;;;;;5002533;28;20033;-67
2021/03/03 10:05:40;;;;;;;9.00;1.50;;;20.20;64.00;;;;;;5004102;28;20042;-68
2021/03/03 10:08:11;;;;;;;5.68;1.27;;;20.20;64.30;;;;;;4999003;28;20467;-68
2021/03/03 10:10:41;;;;;;;7.35;1.10;;;20.20;64.60;;;;;;5004109;28;20083;-68
2021/03/03 10:13:26;;;;;;;7.95;1.63;;;20.20;64.60;;;;;;4999756;28;20049;-66
2021/03/03 10:15:53;;;;;;;4.20;1.10;;;20.30;64.70;;;;;;5003890;28;20773;-67
2021/03/03 10:18:21;;;;;;;7.30;1.20;;;20.30;64.40;;;;;;5000944;28;20063;-67
2021/03/03 10:20:55;;;;;;;6.93;1.70;;;20.30;64.30;;;;;;5003225;28;20021;-70
2021/03/03 10:23:25;;;;;;;9.40;1.55;;;20.20;64.40;;;;;;5002290;28;20036;-67
2021/03/03 10:25:59;;;;;;;6.18;0.93;;;20.10;65.00;;;;;;5002299;28;20040;-67
2021/03/03 10:28:29;;;;;;;7.27;1.77;;;20.20;64.70;;;;;;5001733;28;20033;-68
2021/03/03 10:30:58;;;;;;;7.38;1.85;;;20.20;64.90;;;;;;5003065;28;20029;-65
2021/03/03 10:33:55;;;;;;;11.85;2.22;;;20.10;65.20;;;;;;5002924;28;20092;-67
2021/03/03 10:36:23;;;;;;;7.28;2.35;;;20.20;65.50;;;;;;5002568;28;21239;-67
2021/03/03 10:38:55;;;;;;;5.35;1.35;;;20.20;65.40;;;;;;5000622;28;20030;-67
2021/03/03 10:41:33;;;;;;;4.90;1.45;;;20.20;65.10;;;;;;5001603;28;20034;-69
2021/03/03 10:44:02;;;;;;;6.53;1.30;;;20.10;65.30;;;;;;5002836;28;20807;-68
2021/03/03 10:46:30;;;;;;;5.70;1.27;;;20.10;65.50;;;;;;5003693;28;20049;-70
2021/03/03 10:49:18;;;;;;;9.68;1.15;;;20.10;65.70;;;;;;4999715;28;20038;-67
2021/03/03 10:51:46;;;;;;;7.50;1.00;;;20.00;66.10;;;;;;5001112;28;20037;-68
2021/03/03 10:54:14;;;;;;;7.25;2.05;;;20.00;65.90;;;;;;5002273;28;20492;-67
2021/03/03 10:56:44;;;;;;;5.38;0.98;;;20.00;66.10;;;;;;5002726;28;20476;-68
2021/03/03 10:59:28;;;;;;;7.47;1.20;;;20.00;66.20;;;;;;5000945;28;20044;-68
2021/03/03 11:01:58;;;;;;;6.05;1.60;;;19.90;66.30;;;;;;5000185;28;20084;-68
2021/03/03 11:04:43;;;;;;;6.55;1.50;;;19.90;66.50;;;;;;5002509;28;20053;-68
2021/03/03 11:07:12;;;;;;;4.75;1.45;;;19.90;66.30;;;;;;5001191;28;20372;-69
2021/03/03 11:09:39;;;;;;;5.72;1.52;;;19.80;66.50;;;;;;5001662;28;20041;-66
2021/03/03 11:12:08;;;;;;;7.50;1.33;;;19.80;66.70;;;;;;5001049;28;20045;-69
2021/03/03 11:14:36;;;;;;;5.72;1.65;;;19.80;66.60;;;;;;5002362;28;20112;-69
2021/03/03 11:17:05;;;;;;;7.18;1.02;;;19.80;67.00;;;;;;5001678;28;20105;-69
2021/03/03 11:19:32;;;;;;;4.65;1.52;;;19.80;67.00;;;;;;5002036;28;20666;-68
2021/03/03 11:21:59;;;;;;;9.27;1.77;;;19.80;67.00;;;;;;4999544;28;20563;-67
2021/03/03 11:24:27;;;;;;;5.55;1.50;;;19.70;67.30;;;;;;5002879;28;20045;-67
2021/03/03 11:26:54;;;;;;;5.78;1.33;;;19.60;67.50;;;;;;5001168;28;20254;-71
2021/03/03 11:29:22;;;;;;;7.63;1.77;;;19.50;67.80;;;;;;5000617;28;20054;-67
2021/03/03 11:31:49;;;;;;;3.95;0.93;;;19.40;68.00;;;;;;5000940;28;20088;-73
2021/03/03 11:34:17;;;;;;;6.28;1.45;;;19.50;68.50;;;;;;5002065;28;20030;-69
2021/03/03 11:36:44;;;;;;;5.93;1.30;;;19.40;68.10;;;;;;5001450;28;20018;-69
2021/03/03 11:39:12;;;;;;;6.55;1.15;;;19.40;68.60;;;;;;4999428;28;20022;-68
2021/03/03 11:41:39;;;;;;;4.50;1.13;;;19.40;68.40;;;;;;5001210;28;20030;-67
2021/03/03 11:44:07;;;;;;;5.53;1.05;;;19.30;68.60;;;;;;5001871;28;20068;-66
2021/03/03 11:46:35;;;;;;;4.22;1.00;;;19.20;69.00;;;;;;5002746;28;20030;-68
2021/03/03 11:49:03;;;;;;;3.75;1.00;;;19.20;69.00;;;;;;5000349;28;20049;-69
2021/03/03 11:51:30;;;;;;;5.70;1.85;;;19.20;69.40;;;;;;5000487;28;20037;-68
2021/03/03 11:53:57;;;;;;;13.00;2.15;;;19.20;69.40;;;;;;5001650;28;20278;-65
2021/03/03 11:56:25;;;;;;;3.83;1.50;;;19.20;69.70;;;;;;5002825;28;20030;-67
2021/03/03 11:58:52;;;;;;;7.97;1.35;;;19.10;69.80;;;;;;4998868;28;20033;-69
2021/03/03 12:01:20;;;;;;;6.13;1.55;;;19.10;69.90;;;;;;4999525;28;20074;-70
2021/03/03 12:03:47;;;;;;;11.98;2.58;;;19.00;70.10;;;;;;4999945;28;20486;-68
2021/03/03 12:06:14;;;;;;;9.25;2.47;;;19.00;70.30;;;;;;5002981;28;20480;-69
2021/03/03 12:08:43;;;;;;;6.60;1.30;;;18.90;70.60;;;;;;4999631;28;20049;-66
2021/03/03 12:11:10;;;;;;;8.07;2.80;;;18.90;71.10;;;;;;4998044;28;20113;-67
2021/03/03 12:13:38;;;;;;;7.78;2.00;;;18.80;71.40;;;;;;5000186;28;20134;-70
2021/03/03 12:16:06;;;;;;;12.00;2.33;;;18.80;71.70;;;;;;5001643;28;20022;-67
2021/03/03 12:18:33;;;;;;;9.20;2.05;;;18.80;71.80;;;;;;4998521;28;20140;-68
2021/03/03 12:21:01;;;;;;;9.95;2.03;;;18.80;71.90;;;;;;5000641;28;20476;-72
2021/03/03 12:23:28;;;;;;;11.60;1.95;;;18.80;72.20;;;;;;4999461;28;20145;-68
2021/03/03 12:25:56;;;;;;;9.80;2.55;;;18.70;72.70;;;;;;5000368;28;20800;-70
2021/03/03 12:28:23;;;;;;;9.70;2.88;;;18.60;73.10;;;;;;4999281;28;20445;-70
2021/03/03 12:30:51;;;;;;;12.68;2.20;;;18.60;73.30;;;;;;5000496;28;20525;-71
2021/03/03 12:33:18;;;;;;;14.30;3.10;;;18.50;73.40;;;;;;4998874;28;20113;-67
2021/03/03 12:35:46;;;;;;;7.78;2.28;;;18.50;73.60;;;;;;5000177;28;20053;-68
2021/03/03 12:38:14;;;;;;;10.73;1.95;;;18.50;73.80;;;;;;4997259;28;20473;-68
2021/03/03 12:40:42;;;;;;;14.57;2.35;;;18.50;73.90;;;;;;4999457;28;20033;-68
2021/03/03 12:43:10;;;;;;;9.43;2.05;;;18.40;74.10;;;;;;4997302;28;20061;-69
2021/03/03 12:45:39;;;;;;;13.70;3.05;;;18.50;74.10;;;;;;5000271;28;20018;-70
2021/03/03 12:48:07;;;;;;;11.18;2.85;;;18.50;74.00;;;;;;4999114;28;20025;-67
2021/03/03 12:50:34;;;;;;;17.85;2.60;;;18.40;74.00;;;;;;4999503;28;20038;-71
2021/03/03 12:53:02;;;;;;;8.88;1.98;;;18.40;74.20;;;;;;4999516;28;20057;-68
2021/03/03 12:55:29;;;;;;;9.68;1.85;;;18.50;74.20;;;;;;5001277;28;20038;-68
2021/03/03 12:57:56;;;;;;;12.23;2.85;;;18.50;74.10;;;;;;4998582;28;20088;-67
2021/03/03 13:00:24;;;;;;;9.45;2.35;;;18.50;74.00;;;;;;5000603;28;20396;-68